sensor_id;sensor_type;location;lat;lon;timestamp;P1;durP1;ratioP1;P2;durP2;ratioP2
69047;SDS011;56119;50.118;8.642;2023-02-01T00:01:06;4.88;;;3.97;;
69047;SDS011;56119;50.118;8.642;2023-02-01T00:03:32;6.90;;;4.32;;
69047;SDS011;56119;50.118;8.642;2023-02-01T00:05:59;6.45;;;4.63;;
69047;SDS011;56119;50.118;8.642;2023-02-01T00:08:25;6.93;;;4.50;;
69047;SDS011;56119;50.118;8.642;2023-02-01T00:10:58;5.38;;;4.13;;
69047;SDS011;56119;50.118;8.642;2023-02-01T00:13:24;5.90;;;4.40;;
69047;SDS011;56119;50.118;8.642;2023-02-01T00:15:50;8.23;;;4.20;;
69047;SDS011;56119;50.118;8.642;2023-02-01T00:18:16;5.45;;;4.10;;
69047;SDS011;56119;50.118;8.642;2023-02-01T00:20:46;6.30;;;4.30;;
69047;SDS011;56119;50.118;8.642;2023-02-01T00:23:12;7.45;;;4.60;;
69047;SDS011;56119;50.118;8.642;2023-02-01T00:25:38;6.88;;;4.47;;
69047;SDS011;56119;50.118;8.642;2023-02-01T00:28:04;6.05;;;3.85;;
69047;SDS011;56119;50.118;8.642;2023-02-01T00:30:30;4.82;;;3.63;;
69047;SDS011;56119;50.118;8.642;2023-02-01T00:32:56;5.15;;;4.10;;
69047;SDS011;56119;50.118;8.642;2023-02-01T00:35:22;8.00;;;4.40;;
69047;SDS011;56119;50.118;8.642;2023-02-01T00:37:48;5.22;;;4.10;;
69047;SDS011;56119;50.118;8.642;2023-02-01T00:40:14;5.90;;;4.25;;
69047;SDS011;56119;50.118;8.642;2023-02-01T00:42:40;6.97;;;4.57;;
69047;SDS011;56119;50.118;8.642;2023-02-01T00:45:06;6.82;;;4.53;;
69047;SDS011;56119;50.118;8.642;2023-02-01T00:47:32;5.57;;;4.45;;
69047;SDS011;56119;50.118;8.642;2023-02-01T00:49:58;5.35;;;4.18;;
69047;SDS011;56119;50.118;8.642;2023-02-01T00:52:24;5.05;;;4.20;;
69047;SDS011;56119;50.118;8.642;2023-02-01T00:54:50;5.93;;;4.57;;
69047;SDS011;56119;50.118;8.642;2023-02-01T00:57:16;4.13;;;3.72;;
69047;SDS011;56119;50.118;8.642;2023-02-01T00:59:42;5.95;;;4.47;;
69047;SDS011;56119;50.118;8.642;2023-02-01T01:02:08;9.10;;;5.15;;
69047;SDS011;56119;50.118;8.642;2023-02-01T01:04:35;6.50;;;4.72;;
69047;SDS011;56119;50.118;8.642;2023-02-01T01:07:02;6.43;;;4.70;;
69047;SDS011;56119;50.118;8.642;2023-02-01T01:09:28;6.72;;;4.95;;
69047;SDS011;56119;50.118;8.642;2023-02-01T01:11:57;8.30;;;5.93;;
69047;SDS011;56119;50.118;8.642;2023-02-01T01:14:27;7.57;;;4.85;;
69047;SDS011;56119;50.118;8.642;2023-02-01T01:16:53;8.90;;;5.82;;
69047;SDS011;56119;50.118;8.642;2023-02-01T01:19:19;9.07;;;5.47;;
69047;SDS011;56119;50.118;8.642;2023-02-01T01:21:45;9.57;;;6.10;;
69047;SDS011;56119;50.118;8.642;2023-02-01T01:24:11;10.10;;;5.65;;
69047;SDS011;56119;50.118;8.642;2023-02-01T01:26:37;8.35;;;5.72;;
69047;SDS011;56119;50.118;8.642;2023-02-01T01:29:03;8.55;;;5.75;;
69047;SDS011;56119;50.118;8.642;2023-02-01T01:31:31;7.35;;;5.85;;
69047;SDS011;56119;50.118;8.642;2023-02-01T01:33:57;8.30;;;5.10;;
69047;SDS011;56119;50.118;8.642;2023-02-01T01:36:25;8.93;;;6.25;;
69047;SDS011;56119;50.118;8.642;2023-02-01T01:38:51;9.20;;;5.88;;
69047;SDS011;56119;50.118;8.642;2023-02-01T01:41:21;6.22;;;5.50;;
69047;SDS011;56119;50.118;8.642;2023-02-01T01:46:20;8.02;;;6.00;;
69047;SDS011;56119;50.118;8.642;2023-02-01T01:48:51;8.38;;;6.28;;
69047;SDS011;56119;50.118;8.642;2023-02-01T01:51:20;7.63;;;6.10;;
69047;SDS011;56119;50.118;8.642;2023-02-01T01:53:52;11.20;;;6.00;;
69047;SDS011;56119;50.118;8.642;2023-02-01T01:56:21;8.02;;;5.88;;
69047;SDS011;56119;50.118;8.642;2023-02-01T01:58:47;6.72;;;5.55;;
69047;SDS011;56119;50.118;8.642;2023-02-01T02:01:13;7.80;;;6.32;;
69047;SDS011;56119;50.118;8.642;2023-02-01T02:03:40;9.88;;;6.47;;
69047;SDS011;56119;50.118;8.642;2023-02-01T02:06:10;9.60;;;6.43;;
69047;SDS011;56119;50.118;8.642;2023-02-01T02:08:38;10.13;;;6.68;;
69047;SDS011;56119;50.118;8.642;2023-02-01T02:11:04;9.25;;;7.05;;
69047;SDS011;56119;50.118;8.642;2023-02-01T02:18:47;11.07;;;7.00;;
69047;SDS011;56119;50.118;8.642;2023-02-01T02:21:17;11.90;;;6.72;;
69047;SDS011;56119;50.118;8.642;2023-02-01T02:34:18;10.40;;;8.05;;
69047;SDS011;56119;50.118;8.642;2023-02-01T02:41:56;11.60;;;8.68;;
69047;SDS011;56119;50.118;8.642;2023-02-01T02:44:53;12.82;;;9.27;;
69047;SDS011;56119;50.118;8.642;2023-02-01T02:47:42;11.65;;;8.02;;
69047;SDS011;56119;50.118;8.642;2023-02-01T02:53:04;16.48;;;8.63;;
69047;SDS011;56119;50.118;8.642;2023-02-01T02:55:51;14.35;;;8.63;;
69047;SDS011;56119;50.118;8.642;2023-02-01T02:58:37;11.75;;;8.63;;
69047;SDS011;56119;50.118;8.642;2023-02-01T03:01:22;10.82;;;7.97;;
69047;SDS011;56119;50.118;8.642;2023-02-01T03:04:06;12.15;;;8.40;;
69047;SDS011;56119;50.118;8.642;2023-02-01T03:06:39;12.10;;;8.85;;
69047;SDS011;56119;50.118;8.642;2023-02-01T03:09:06;11.65;;;9.10;;
69047;SDS011;56119;50.118;8.642;2023-02-01T03:11:34;10.02;;;8.15;;
69047;SDS011;56119;50.118;8.642;2023-02-01T03:14:19;11.15;;;8.00;;
69047;SDS011;56119;50.118;8.642;2023-02-01T03:16:50;12.70;;;8.07;;
69047;SDS011;56119;50.118;8.642;2023-02-01T03:19:24;14.45;;;8.73;;
69047;SDS011;56119;50.118;8.642;2023-02-01T03:21:59;11.55;;;7.60;;
69047;SDS011;56119;50.118;8.642;2023-02-01T03:24:28;10.63;;;6.93;;
69047;SDS011;56119;50.118;8.642;2023-02-01T03:27:13;11.45;;;7.82;;
69047;SDS011;56119;50.118;8.642;2023-02-01T03:29:42;10.85;;;7.20;;
69047;SDS011;56119;50.118;8.642;2023-02-01T03:32:11;11.10;;;7.50;;
69047;SDS011;56119;50.118;8.642;2023-02-01T03:34:37;11.70;;;7.60;;
69047;SDS011;56119;50.118;8.642;2023-02-01T03:37:08;14.18;;;7.22;;
69047;SDS011;56119;50.118;8.642;2023-02-01T03:39:48;8.82;;;6.78;;
69047;SDS011;56119;50.118;8.642;2023-02-01T03:42:18;10.98;;;6.65;;
69047;SDS011;56119;50.118;8.642;2023-02-01T03:44:47;8.85;;;6.75;;
69047;SDS011;56119;50.118;8.642;2023-02-01T03:47:23;10.30;;;6.45;;
69047;SDS011;56119;50.118;8.642;2023-02-01T03:49:52;8.55;;;6.30;;
69047;SDS011;56119;50.118;8.642;2023-02-01T03:52:30;10.25;;;6.22;;
69047;SDS011;56119;50.118;8.642;2023-02-01T03:54:59;9.48;;;6.53;;
69047;SDS011;56119;50.118;8.642;2023-02-01T03:57:26;10.43;;;6.25;;
69047;SDS011;56119;50.118;8.642;2023-02-01T03:59:52;10.10;;;6.80;;
69047;SDS011;56119;50.118;8.642;2023-02-01T04:02:18;9.43;;;6.38;;
69047;SDS011;56119;50.118;8.642;2023-02-01T04:04:44;10.40;;;6.57;;
69047;SDS011;56119;50.118;8.642;2023-02-01T04:07:10;8.55;;;6.13;;
69047;SDS011;56119;50.118;8.642;2023-02-01T04:09:37;11.00;;;6.53;;
69047;SDS011;56119;50.118;8.642;2023-02-01T04:12:02;8.48;;;6.25;;
69047;SDS011;56119;50.118;8.642;2023-02-01T04:14:28;9.25;;;6.00;;
69047;SDS011;56119;50.118;8.642;2023-02-01T04:16:54;12.27;;;6.15;;
69047;SDS011;56119;50.118;8.642;2023-02-01T04:19:20;8.68;;;6.18;;
69047;SDS011;56119;50.118;8.642;2023-02-01T04:21:46;11.60;;;7.13;;
69047;SDS011;56119;50.118;8.642;2023-02-01T04:24:12;8.73;;;6.35;;
69047;SDS011;56119;50.118;8.642;2023-02-01T04:26:38;9.18;;;6.78;;
69047;SDS011;56119;50.118;8.642;2023-02-01T04:29:04;11.85;;;6.50;;
69047;SDS011;56119;50.118;8.642;2023-02-01T04:31:30;9.32;;;6.88;;
69047;SDS011;56119;50.118;8.642;2023-02-01T04:33:57;9.93;;;6.95;;
69047;SDS011;56119;50.118;8.642;2023-02-01T04:36:23;11.40;;;7.32;;
69047;SDS011;56119;50.118;8.642;2023-02-01T04:38:49;13.85;;;7.35;;
69047;SDS011;56119;50.118;8.642;2023-02-01T04:41:15;12.07;;;6.72;;
69047;SDS011;56119;50.118;8.642;2023-02-01T04:43:48;10.05;;;6.97;;
69047;SDS011;56119;50.118;8.642;2023-02-01T04:46:14;11.98;;;7.28;;
69047;SDS011;56119;50.118;8.642;2023-02-01T04:48:40;9.02;;;6.80;;
69047;SDS011;56119;50.118;8.642;2023-02-01T04:51:06;12.68;;;7.30;;
69047;SDS011;56119;50.118;8.642;2023-02-01T04:53:32;10.07;;;6.72;;
69047;SDS011;56119;50.118;8.642;2023-02-01T04:55:58;11.20;;;7.32;;
69047;SDS011;56119;50.118;8.642;2023-02-01T04:58:24;11.52;;;7.57;;
69047;SDS011;56119;50.118;8.642;2023-02-01T05:00:50;9.43;;;6.25;;
69047;SDS011;56119;50.118;8.642;2023-02-01T05:03:16;9.35;;;6.55;;
69047;SDS011;56119;50.118;8.642;2023-02-01T05:05:42;9.15;;;6.85;;
69047;SDS011;56119;50.118;8.642;2023-02-01T05:08:09;11.43;;;6.82;;
69047;SDS011;56119;50.118;8.642;2023-02-01T05:10:35;11.38;;;6.50;;
69047;SDS011;56119;50.118;8.642;2023-02-01T05:13:01;10.43;;;7.07;;
69047;SDS011;56119;50.118;8.642;2023-02-01T05:15:45;11.27;;;6.85;;
69047;SDS011;56119;50.118;8.642;2023-02-01T05:18:12;14.50;;;7.28;;
69047;SDS011;56119;50.118;8.642;2023-02-01T05:20:38;10.48;;;6.30;;
69047;SDS011;56119;50.118;8.642;2023-02-01T05:23:04;8.68;;;6.00;;
69047;SDS011;56119;50.118;8.642;2023-02-01T05:25:30;11.85;;;6.32;;
69047;SDS011;56119;50.118;8.642;2023-02-01T05:27:56;10.50;;;5.97;;
69047;SDS011;56119;50.118;8.642;2023-02-01T05:30:22;10.43;;;5.65;;
69047;SDS011;56119;50.118;8.642;2023-02-01T05:32:49;8.25;;;5.82;;
69047;SDS011;56119;50.118;8.642;2023-02-01T05:35:15;11.07;;;5.60;;
69047;SDS011;56119;50.118;8.642;2023-02-01T05:37:41;7.22;;;5.18;;
69047;SDS011;56119;50.118;8.642;2023-02-01T05:40:07;7.88;;;5.60;;
69047;SDS011;56119;50.118;8.642;2023-02-01T05:42:33;12.70;;;5.38;;
69047;SDS011;56119;50.118;8.642;2023-02-01T05:44:59;9.43;;;5.03;;
69047;SDS011;56119;50.118;8.642;2023-02-01T05:47:25;10.25;;;5.72;;
69047;SDS011;56119;50.118;8.642;2023-02-01T05:49:51;13.07;;;5.35;;
69047;SDS011;56119;50.118;8.642;2023-02-01T05:52:17;7.40;;;5.25;;
69047;SDS011;56119;50.118;8.642;2023-02-01T05:54:44;11.93;;;5.68;;
69047;SDS011;56119;50.118;8.642;2023-02-01T05:57:11;8.75;;;4.60;;
69047;SDS011;56119;50.118;8.642;2023-02-01T05:59:38;9.98;;;5.00;;
69047;SDS011;56119;50.118;8.642;2023-02-01T06:02:06;10.82;;;4.55;;
69047;SDS011;56119;50.118;8.642;2023-02-01T06:04:32;10.90;;;6.15;;
69047;SDS011;56119;50.118;8.642;2023-02-01T06:06:58;10.35;;;5.00;;
69047;SDS011;56119;50.118;8.642;2023-02-01T06:09:24;9.75;;;4.78;;
69047;SDS011;56119;50.118;8.642;2023-02-01T06:11:50;15.05;;;4.55;;
69047;SDS011;56119;50.118;8.642;2023-02-01T06:14:16;11.50;;;4.88;;
69047;SDS011;56119;50.118;8.642;2023-02-01T06:16:42;12.30;;;4.05;;
69047;SDS011;56119;50.118;8.642;2023-02-01T06:19:10;11.70;;;5.05;;
69047;SDS011;56119;50.118;8.642;2023-02-01T06:21:36;16.88;;;5.30;;
69047;SDS011;56119;50.118;8.642;2023-02-01T06:24:02;9.55;;;4.22;;
69047;SDS011;56119;50.118;8.642;2023-02-01T06:26:28;12.68;;;5.35;;
69047;SDS011;56119;50.118;8.642;2023-02-01T06:28:55;9.45;;;3.85;;
69047;SDS011;56119;50.118;8.642;2023-02-01T06:31:21;14.70;;;4.60;;
69047;SDS011;56119;50.118;8.642;2023-02-01T06:33:48;12.00;;;4.38;;
69047;SDS011;56119;50.118;8.642;2023-02-01T06:36:14;14.07;;;4.35;;
69047;SDS011;56119;50.118;8.642;2023-02-01T06:38:41;12.80;;;5.32;;
69047;SDS011;56119;50.118;8.642;2023-02-01T06:41:07;13.25;;;4.63;;
69047;SDS011;56119;50.118;8.642;2023-02-01T06:43:33;12.30;;;4.85;;
69047;SDS011;56119;50.118;8.642;2023-02-01T06:46:00;12.73;;;4.75;;
69047;SDS011;56119;50.118;8.642;2023-02-01T06:48:26;12.88;;;4.53;;
69047;SDS011;56119;50.118;8.642;2023-02-01T06:50:52;16.20;;;5.07;;
69047;SDS011;56119;50.118;8.642;2023-02-01T06:53:21;14.45;;;4.95;;
69047;SDS011;56119;50.118;8.642;2023-02-01T06:58:22;12.23;;;4.63;;
69047;SDS011;56119;50.118;8.642;2023-02-01T07:00:48;14.65;;;4.75;;
69047;SDS011;56119;50.118;8.642;2023-02-01T07:03:15;18.50;;;5.75;;
69047;SDS011;56119;50.118;8.642;2023-02-01T07:05:41;13.35;;;4.85;;
69047;SDS011;56119;50.118;8.642;2023-02-01T07:08:07;16.50;;;5.15;;
69047;SDS011;56119;50.118;8.642;2023-02-01T07:10:34;8.90;;;4.03;;
69047;SDS011;56119;50.118;8.642;2023-02-01T07:13:00;13.63;;;5.50;;
69047;SDS011;56119;50.118;8.642;2023-02-01T07:15:26;21.08;;;5.30;;
69047;SDS011;56119;50.118;8.642;2023-02-01T07:17:54;14.43;;;4.18;;
69047;SDS011;56119;50.118;8.642;2023-02-01T07:20:20;13.07;;;4.47;;
69047;SDS011;56119;50.118;8.642;2023-02-01T07:22:46;14.23;;;3.90;;
69047;SDS011;56119;50.118;8.642;2023-02-01T07:25:12;19.05;;;5.50;;
69047;SDS011;56119;50.118;8.642;2023-02-01T07:27:38;11.52;;;3.90;;
69047;SDS011;56119;50.118;8.642;2023-02-01T07:30:04;14.82;;;4.03;;
69047;SDS011;56119;50.118;8.642;2023-02-01T07:32:30;17.13;;;4.45;;
69047;SDS011;56119;50.118;8.642;2023-02-01T07:34:57;16.20;;;4.30;;
69047;SDS011;56119;50.118;8.642;2023-02-01T07:37:23;12.38;;;4.28;;
69047;SDS011;56119;50.118;8.642;2023-02-01T07:39:49;13.55;;;4.32;;
69047;SDS011;56119;50.118;8.642;2023-02-01T07:42:15;14.32;;;4.18;;
69047;SDS011;56119;50.118;8.642;2023-02-01T07:44:41;16.95;;;3.83;;
69047;SDS011;56119;50.118;8.642;2023-02-01T07:47:07;9.70;;;3.67;;
69047;SDS011;56119;50.118;8.642;2023-02-01T07:49:33;13.98;;;4.15;;
69047;SDS011;56119;50.118;8.642;2023-02-01T07:51:59;12.45;;;4.43;;
69047;SDS011;56119;50.118;8.642;2023-02-01T07:54:26;14.75;;;4.68;;
69047;SDS011;56119;50.118;8.642;2023-02-01T07:56:52;12.45;;;3.28;;
69047;SDS011;56119;50.118;8.642;2023-02-01T07:59:18;13.10;;;3.90;;
69047;SDS011;56119;50.118;8.642;2023-02-01T08:01:44;13.98;;;3.88;;
69047;SDS011;56119;50.118;8.642;2023-02-01T08:04:10;8.85;;;3.67;;
69047;SDS011;56119;50.118;8.642;2023-02-01T08:06:37;17.08;;;3.33;;
69047;SDS011;56119;50.118;8.642;2023-02-01T08:09:04;10.93;;;3.90;;
69047;SDS011;56119;50.118;8.642;2023-02-01T08:11:30;14.40;;;3.55;;
69047;SDS011;56119;50.118;8.642;2023-02-01T08:13:57;9.77;;;3.63;;
69047;SDS011;56119;50.118;8.642;2023-02-01T08:16:23;11.05;;;3.45;;
69047;SDS011;56119;50.118;8.642;2023-02-01T08:18:50;12.90;;;3.65;;
69047;SDS011;56119;50.118;8.642;2023-02-01T08:21:17;14.30;;;4.72;;
69047;SDS011;56119;50.118;8.642;2023-02-01T08:23:43;16.58;;;4.78;;
69047;SDS011;56119;50.118;8.642;2023-02-01T08:28:36;10.45;;;3.78;;
69047;SDS011;56119;50.118;8.642;2023-02-01T08:31:07;11.95;;;3.60;;
69047;SDS011;56119;50.118;8.642;2023-02-01T08:33:34;12.27;;;3.70;;
69047;SDS011;56119;50.118;8.642;2023-02-01T08:36:01;14.02;;;4.78;;
69047;SDS011;56119;50.118;8.642;2023-02-01T08:38:27;13.45;;;3.40;;
69047;SDS011;56119;50.118;8.642;2023-02-01T08:40:53;14.75;;;3.80;;
69047;SDS011;56119;50.118;8.642;2023-02-01T08:43:19;14.68;;;3.75;;
69047;SDS011;56119;50.118;8.642;2023-02-01T08:45:45;14.23;;;3.83;;
69047;SDS011;56119;50.118;8.642;2023-02-01T08:48:11;10.13;;;3.60;;
69047;SDS011;56119;50.118;8.642;2023-02-01T08:50:37;14.88;;;3.55;;
69047;SDS011;56119;50.118;8.642;2023-02-01T08:53:03;16.35;;;4.00;;
69047;SDS011;56119;50.118;8.642;2023-02-01T08:55:29;12.98;;;4.00;;
69047;SDS011;56119;50.118;8.642;2023-02-01T08:57:55;10.70;;;3.78;;
69047;SDS011;56119;50.118;8.642;2023-02-01T09:00:21;16.92;;;3.70;;
69047;SDS011;56119;50.118;8.642;2023-02-01T09:02:47;17.08;;;4.32;;
69047;SDS011;56119;50.118;8.642;2023-02-01T09:05:13;11.32;;;3.30;;
69047;SDS011;56119;50.118;8.642;2023-02-01T09:07:41;12.90;;;3.47;;
69047;SDS011;56119;50.118;8.642;2023-02-01T09:10:07;14.68;;;3.78;;
69047;SDS011;56119;50.118;8.642;2023-02-01T09:12:34;10.43;;;3.20;;
69047;SDS011;56119;50.118;8.642;2023-02-01T09:15:00;15.75;;;3.28;;
69047;SDS011;56119;50.118;8.642;2023-02-01T09:17:26;9.25;;;3.42;;
69047;SDS011;56119;50.118;8.642;2023-02-01T09:19:53;14.05;;;3.90;;
69047;SDS011;56119;50.118;8.642;2023-02-01T09:22:19;17.17;;;3.30;;
69047;SDS011;56119;50.118;8.642;2023-02-01T09:24:45;16.95;;;3.58;;
69047;SDS011;56119;50.118;8.642;2023-02-01T09:27:11;12.88;;;3.78;;
69047;SDS011;56119;50.118;8.642;2023-02-01T09:29:37;12.20;;;3.25;;
69047;SDS011;56119;50.118;8.642;2023-02-01T09:32:03;11.13;;;3.35;;
69047;SDS011;56119;50.118;8.642;2023-02-01T09:34:31;11.95;;;3.65;;
69047;SDS011;56119;50.118;8.642;2023-02-01T09:36:57;13.25;;;3.38;;
69047;SDS011;56119;50.118;8.642;2023-02-01T09:39:23;12.25;;;2.80;;
69047;SDS011;56119;50.118;8.642;2023-02-01T09:47:13;10.60;;;3.03;;
69047;SDS011;56119;50.118;8.642;2023-02-01T09:49:43;11.55;;;2.95;;
69047;SDS011;56119;50.118;8.642;2023-02-01T09:52:11;12.50;;;4.10;;
69047;SDS011;56119;50.118;8.642;2023-02-01T09:54:49;8.10;;;3.25;;
69047;SDS011;56119;50.118;8.642;2023-02-01T09:57:23;7.60;;;2.67;;
69047;SDS011;56119;50.118;8.642;2023-02-01T09:59:59;11.75;;;3.13;;
69047;SDS011;56119;50.118;8.642;2023-02-01T10:02:26;11.80;;;2.92;;
69047;SDS011;56119;50.118;8.642;2023-02-01T10:04:55;12.25;;;2.92;;
69047;SDS011;56119;50.118;8.642;2023-02-01T10:07:30;11.55;;;3.47;;
69047;SDS011;56119;50.118;8.642;2023-02-01T10:10:14;12.38;;;3.75;;
69047;SDS011;56119;50.118;8.642;2023-02-01T10:15:43;13.18;;;3.22;;
69047;SDS011;56119;50.118;8.642;2023-02-01T10:18:26;9.40;;;2.85;;
69047;SDS011;56119;50.118;8.642;2023-02-01T10:26:23;9.70;;;3.28;;
69047;SDS011;56119;50.118;8.642;2023-02-01T10:29:00;10.27;;;2.80;;
69047;SDS011;56119;50.118;8.642;2023-02-01T10:31:28;8.43;;;2.42;;
69047;SDS011;56119;50.118;8.642;2023-02-01T10:33:59;14.00;;;3.90;;
69047;SDS011;56119;50.118;8.642;2023-02-01T10:36:29;9.95;;;2.80;;
69047;SDS011;56119;50.118;8.642;2023-02-01T10:38:59;11.00;;;3.03;;
69047;SDS011;56119;50.118;8.642;2023-02-01T10:41:30;12.35;;;3.45;;
69047;SDS011;56119;50.118;8.642;2023-02-01T10:43:57;15.00;;;3.10;;
69047;SDS011;56119;50.118;8.642;2023-02-01T10:46:24;11.98;;;2.50;;
69047;SDS011;56119;50.118;8.642;2023-02-01T10:48:50;12.95;;;3.15;;
69047;SDS011;56119;50.118;8.642;2023-02-01T10:51:22;12.02;;;3.90;;
69047;SDS011;56119;50.118;8.642;2023-02-01T10:54:03;14.00;;;3.38;;
69047;SDS011;56119;50.118;8.642;2023-02-01T10:56:29;11.55;;;2.63;;
69047;SDS011;56119;50.118;8.642;2023-02-01T10:59:00;15.18;;;3.22;;
69047;SDS011;56119;50.118;8.642;2023-02-01T11:01:28;14.18;;;3.58;;
69047;SDS011;56119;50.118;8.642;2023-02-01T11:03:59;13.20;;;3.15;;
69047;SDS011;56119;50.118;8.642;2023-02-01T11:06:30;10.00;;;3.03;;
69047;SDS011;56119;50.118;8.642;2023-02-01T11:08:57;12.32;;;3.03;;
69047;SDS011;56119;50.118;8.642;2023-02-01T11:11:24;12.00;;;2.70;;
69047;SDS011;56119;50.118;8.642;2023-02-01T11:13:55;12.85;;;2.60;;
69047;SDS011;56119;50.118;8.642;2023-02-01T11:16:23;11.48;;;2.35;;
69047;SDS011;56119;50.118;8.642;2023-02-01T11:18:54;12.32;;;3.33;;
69047;SDS011;56119;50.118;8.642;2023-02-01T11:21:20;13.93;;;3.15;;
69047;SDS011;56119;50.118;8.642;2023-02-01T11:23:47;12.40;;;2.97;;
69047;SDS011;56119;50.118;8.642;2023-02-01T11:26:14;13.68;;;2.72;;
69047;SDS011;56119;50.118;8.642;2023-02-01T11:28:43;15.68;;;4.68;;
69047;SDS011;56119;50.118;8.642;2023-02-01T11:31:12;12.10;;;3.17;;
69047;SDS011;56119;50.118;8.642;2023-02-01T11:33:41;11.02;;;2.90;;
69047;SDS011;56119;50.118;8.642;2023-02-01T11:36:10;11.80;;;2.97;;
69047;SDS011;56119;50.118;8.642;2023-02-01T11:38:38;11.63;;;2.67;;
69047;SDS011;56119;50.118;8.642;2023-02-01T11:41:14;13.02;;;2.63;;
69047;SDS011;56119;50.118;8.642;2023-02-01T11:46:22;10.75;;;2.40;;
69047;SDS011;56119;50.118;8.642;2023-02-01T11:48:51;19.27;;;3.83;;
69047;SDS011;56119;50.118;8.642;2023-02-01T11:56:32;12.50;;;3.10;;
69047;SDS011;56119;50.118;8.642;2023-02-01T11:59:12;12.15;;;2.65;;
69047;SDS011;56119;50.118;8.642;2023-02-01T12:07:11;10.70;;;2.50;;
69047;SDS011;56119;50.118;8.642;2023-02-01T12:12:26;15.70;;;3.08;;
69047;SDS011;56119;50.118;8.642;2023-02-01T12:20:30;13.57;;;2.60;;
69047;SDS011;56119;50.118;8.642;2023-02-01T12:28:05;10.98;;;2.65;;
69047;SDS011;56119;50.118;8.642;2023-02-01T12:33:18;10.55;;;3.30;;
69047;SDS011;56119;50.118;8.642;2023-02-01T12:35:49;13.07;;;3.08;;
69047;SDS011;56119;50.118;8.642;2023-02-01T12:41:04;13.50;;;3.38;;
69047;SDS011;56119;50.118;8.642;2023-02-01T12:46:04;14.07;;;2.65;;
69047;SDS011;56119;50.118;8.642;2023-02-01T12:48:42;12.23;;;3.83;;
69047;SDS011;56119;50.118;8.642;2023-02-01T12:51:16;14.10;;;3.58;;
69047;SDS011;56119;50.118;8.642;2023-02-01T12:53:57;12.50;;;3.00;;
69047;SDS011;56119;50.118;8.642;2023-02-01T12:56:35;13.40;;;2.67;;
69047;SDS011;56119;50.118;8.642;2023-02-01T12:59:04;12.13;;;3.05;;
69047;SDS011;56119;50.118;8.642;2023-02-01T13:01:49;14.48;;;2.97;;
69047;SDS011;56119;50.118;8.642;2023-02-01T13:06:49;13.90;;;3.17;;
69047;SDS011;56119;50.118;8.642;2023-02-01T13:12:22;14.60;;;2.97;;
69047;SDS011;56119;50.118;8.642;2023-02-01T13:14:52;8.40;;;2.85;;
69047;SDS011;56119;50.118;8.642;2023-02-01T13:17:20;9.60;;;2.47;;
69047;SDS011;56119;50.118;8.642;2023-02-01T13:22:35;14.20;;;3.47;;
69047;SDS011;56119;50.118;8.642;2023-02-01T13:25:11;18.75;;;3.92;;
69047;SDS011;56119;50.118;8.642;2023-02-01T13:27:38;10.07;;;2.40;;
69047;SDS011;56119;50.118;8.642;2023-02-01T13:30:24;17.45;;;3.60;;
69047;SDS011;56119;50.118;8.642;2023-02-01T13:38:06;14.32;;;2.80;;
69047;SDS011;56119;50.118;8.642;2023-02-01T13:43:28;10.77;;;2.42;;
69047;SDS011;56119;50.118;8.642;2023-02-01T13:45:56;15.02;;;3.05;;
69047;SDS011;56119;50.118;8.642;2023-02-01T13:48:31;15.75;;;2.50;;
69047;SDS011;56119;50.118;8.642;2023-02-01T13:50:59;12.20;;;2.70;;
69047;SDS011;56119;50.118;8.642;2023-02-01T13:53:30;9.38;;;2.38;;
69047;SDS011;56119;50.118;8.642;2023-02-01T13:55:58;11.18;;;2.35;;
69047;SDS011;56119;50.118;8.642;2023-02-01T13:58:30;12.02;;;2.15;;
69047;SDS011;56119;50.118;8.642;2023-02-01T14:03:44;12.63;;;3.30;;
69047;SDS011;56119;50.118;8.642;2023-02-01T14:06:18;12.57;;;2.53;;
69047;SDS011;56119;50.118;8.642;2023-02-01T14:11:32;11.00;;;2.10;;
69047;SDS011;56119;50.118;8.642;2023-02-01T14:14:06;13.10;;;2.55;;
69047;SDS011;56119;50.118;8.642;2023-02-01T14:16:33;11.75;;;2.70;;
69047;SDS011;56119;50.118;8.642;2023-02-01T14:18:59;10.73;;;3.33;;
69047;SDS011;56119;50.118;8.642;2023-02-01T14:21:30;9.70;;;2.10;;
69047;SDS011;56119;50.118;8.642;2023-02-01T14:29:19;7.28;;;1.83;;
69047;SDS011;56119;50.118;8.642;2023-02-01T14:34:38;9.05;;;2.17;;
69047;SDS011;56119;50.118;8.642;2023-02-01T14:37:09;14.32;;;2.28;;
69047;SDS011;56119;50.118;8.642;2023-02-01T14:42:14;12.85;;;2.95;;
69047;SDS011;56119;50.118;8.642;2023-02-01T14:44:41;8.43;;;1.95;;
69047;SDS011;56119;50.118;8.642;2023-02-01T14:52:16;13.48;;;2.28;;
69047;SDS011;56119;50.118;8.642;2023-02-01T14:54:42;9.05;;;2.63;;
69047;SDS011;56119;50.118;8.642;2023-02-01T14:57:13;11.68;;;2.45;;
69047;SDS011;56119;50.118;8.642;2023-02-01T14:59:42;11.95;;;2.03;;
69047;SDS011;56119;50.118;8.642;2023-02-01T15:02:17;10.60;;;1.75;;
69047;SDS011;56119;50.118;8.642;2023-02-01T15:04:43;8.55;;;1.70;;
69047;SDS011;56119;50.118;8.642;2023-02-01T15:07:12;9.00;;;1.80;;
69047;SDS011;56119;50.118;8.642;2023-02-01T15:09:43;12.77;;;2.20;;
69047;SDS011;56119;50.118;8.642;2023-02-01T15:17:34;12.95;;;2.25;;
69047;SDS011;56119;50.118;8.642;2023-02-01T15:20:46;9.98;;;2.08;;
69047;SDS011;56119;50.118;8.642;2023-02-01T15:22:57;8.57;;;1.90;;
69047;SDS011;56119;50.118;8.642;2023-02-01T15:25:25;11.20;;;2.80;;
69047;SDS011;56119;50.118;8.642;2023-02-01T15:27:52;12.93;;;2.78;;
69047;SDS011;56119;50.118;8.642;2023-02-01T15:30:23;18.23;;;4.75;;
69047;SDS011;56119;50.118;8.642;2023-02-01T15:32:50;13.52;;;2.28;;
69047;SDS011;56119;50.118;8.642;2023-02-01T15:43:27;7.82;;;2.03;;
69047;SDS011;56119;50.118;8.642;2023-02-01T15:45:58;11.57;;;3.47;;
69047;SDS011;56119;50.118;8.642;2023-02-01T15:48:25;10.38;;;1.60;;
69047;SDS011;56119;50.118;8.642;2023-02-01T15:50:52;8.63;;;2.25;;
69047;SDS011;56119;50.118;8.642;2023-02-01T15:53:21;9.35;;;2.25;;
69047;SDS011;56119;50.118;8.642;2023-02-01T15:55:51;10.23;;;2.13;;
69047;SDS011;56119;50.118;8.642;2023-02-01T15:58:18;10.50;;;1.98;;
69047;SDS011;56119;50.118;8.642;2023-02-01T16:00:46;8.88;;;2.22;;
69047;SDS011;56119;50.118;8.642;2023-02-01T16:06:00;8.10;;;1.90;;
69047;SDS011;56119;50.118;8.642;2023-02-01T16:08:27;13.13;;;2.30;;
69047;SDS011;56119;50.118;8.642;2023-02-01T16:11:20;12.70;;;2.63;;
69047;SDS011;56119;50.118;8.642;2023-02-01T16:13:40;12.40;;;2.08;;
69047;SDS011;56119;50.118;8.642;2023-02-01T16:16:07;7.72;;;2.85;;
69047;SDS011;56119;50.118;8.642;2023-02-01T16:18:38;11.57;;;2.03;;
69047;SDS011;56119;50.118;8.642;2023-02-01T16:21:04;5.88;;;2.40;;
69047;SDS011;56119;50.118;8.642;2023-02-01T16:23:32;9.60;;;2.20;;
69047;SDS011;56119;50.118;8.642;2023-02-01T16:25:58;14.32;;;2.50;;
69047;SDS011;56119;50.118;8.642;2023-02-01T16:28:24;13.82;;;2.03;;
69047;SDS011;56119;50.118;8.642;2023-02-01T16:30:51;8.85;;;2.53;;
69047;SDS011;56119;50.118;8.642;2023-02-01T16:33:18;13.15;;;2.65;;
69047;SDS011;56119;50.118;8.642;2023-02-01T16:35:46;9.23;;;2.15;;
69047;SDS011;56119;50.118;8.642;2023-02-01T16:38:13;7.38;;;2.50;;
69047;SDS011;56119;50.118;8.642;2023-02-01T16:40:40;10.38;;;2.35;;
69047;SDS011;56119;50.118;8.642;2023-02-01T16:43:13;8.45;;;2.05;;
69047;SDS011;56119;50.118;8.642;2023-02-01T16:45:39;9.90;;;2.13;;
69047;SDS011;56119;50.118;8.642;2023-02-01T16:48:07;10.27;;;2.10;;
69047;SDS011;56119;50.118;8.642;2023-02-01T16:50:33;10.55;;;2.25;;
69047;SDS011;56119;50.118;8.642;2023-02-01T16:52:59;9.27;;;2.33;;
69047;SDS011;56119;50.118;8.642;2023-02-01T16:55:26;13.85;;;2.55;;
69047;SDS011;56119;50.118;8.642;2023-02-01T16:57:52;10.70;;;2.22;;
69047;SDS011;56119;50.118;8.642;2023-02-01T17:00:18;16.17;;;2.53;;